Kassel, Germany

1:29 AM CET on December 28, 2014 (GMT +0100)
Kassel Bettenhausen | Change Station
CLOSE
Current Station
Personal Weather Station
Location: Kassel, HESSEN
Elevation: 466 ft
Nearby Weather Stations

Elev 466 ft 51.31 °N, 9.53 °E | Updated 22 seconds ago

Mostly Cloudy
Mostly Cloudy
27.3 °F
Feels Like 27 °F
N
2.0
Wind Variable Wind from SSE
Gusts 2.0 mph

Today
High -- | Low -- °F
--% Chance of Precip.
Yesterday
High -- | Low -- °F
Precip. -- in
8:26 AM 4:20 PM
Waxing Crescent, 41% visible
Pressure 29.77 in
Visibility 6.2 miles
Clouds Mostly Cloudy 2800 ft
Windchill 27 °F
Dew Point 20 °F
Humidity 72%
Rainfall 0.00 in
Snow Depth Not available.
UV 0 out of 12
Pollen Not available.
Air Quality Not available.
Flu Activity Not available.
METAR ETHF 280020Z 04009KT 9999 BKN028 M03/M08 Q1008 BLU

More Conditions Fewer Conditions

Pressure 29.77 in
Visibility 6.2 miles
Clouds Mostly Cloudy 2800 ft
Windchill 27 °F
Dew Point 20 °F
Humidity 72%
Rainfall 0.00 in
Snow Depth Not available.
UV 0 out of 12
Pollen Not available.
Air Quality Not available.
Flu Activity Not available.
METAR ETHF 280020Z 04009KT 9999 BKN028 M03/M08 Q1008 BLU

More Conditions Fewer Conditions

10-Day Weather Forecast

Almanac

Astronomy

Dec. 28, 2014 Rise Set
Actual Time
Civil Twilight
Nautical Twilight
Astronomical Twilight
Moon
Length of Visible Light
Length of Day
Tomorrow will be .
, % of the Moon is Illuminated

Today's Extremes

Country Highs Country Lows

Community

WunderPhotos

Upload Photos

1,781,116 photos uploaded!

WunderBlogs® & News

Nearby

Air Quality

  Air Quality AQ Index Pollutant
Not available.

Snow Depth

Station Depth Elevation

Earthquake Activity

City Distance Mag. Time & Date
Minimum magnitude displayed is 2.5.

Coastal Water Temperatures

Place Temperature

Nearby Weather Stations